Time;durP1;ratioP1;P1;durP2;ratioP2;P2;SDS_P1;SDS_P2;PMS_P1;PMS_P2;Temp;Humidity;BMP_temperature;BMP_pressure;BME280_temperature;BME280_humidity;BME280_pressure;Samples;Min_cycle;Max_cycle;Signal;HPM_P1;HPM_P2
2023/11/29 00:01:33;;;;;;;15.85;7.90;;;2.60;99.90;;;;;;4990699;28;20129;-91
2023/11/29 00:03:59;;;;;;;17.85;9.13;;;2.70;99.90;;;;;;4991560;28;20026;-91
2023/11/29 00:06:24;;;;;;;14.07;7.78;;;2.80;99.90;;;;;;4989742;28;20556;-90
2023/11/29 00:08:57;;;;;;;26.80;8.32;;;2.80;99.90;;;;;;4990218;28;20034;-91
2023/11/29 00:11:25;;;;;;;15.13;7.57;;;2.70;99.90;;;;;;4998894;28;20121;-91
2023/11/29 00:13:51;;;;;;;15.50;8.30;;;2.70;99.90;;;;;;4993281;28;20034;-91
2023/11/29 00:16:17;;;;;;;17.17;8.50;;;2.80;99.90;;;;;;4997171;28;20037;-91
2023/11/29 00:18:42;;;;;;;18.05;8.68;;;2.70;99.90;;;;;;4995689;28;20042;-91
2023/11/29 00:21:08;;;;;;;15.00;7.72;;;2.80;99.90;;;;;;4997678;28;20045;-92
2023/11/29 00:23:33;;;;;;;16.05;8.30;;;2.90;99.90;;;;;;4990689;28;20030;-91
2023/11/29 00:26:04;;;;;;;14.32;7.50;;;2.90;99.90;;;;;;4991217;28;20497;-89
2023/11/29 00:28:29;;;;;;;17.25;7.78;;;2.90;99.90;;;;;;4991269;28;20409;-90
2023/11/29 00:30:55;;;;;;;14.48;7.30;;;2.90;99.90;;;;;;4989254;28;20026;-92
2023/11/29 00:33:21;;;;;;;15.73;7.45;;;2.90;99.90;;;;;;4989975;28;20028;-91
2023/11/29 00:35:49;;;;;;;16.33;8.27;;;3.00;99.90;;;;;;4992105;28;20027;-92
2023/11/29 00:38:14;;;;;;;17.80;9.18;;;2.90;99.90;;;;;;4991565;28;20405;-91
2023/11/29 00:40:44;;;;;;;16.77;8.40;;;2.70;99.90;;;;;;4993349;28;20031;-91
2023/11/29 00:43:09;;;;;;;27.80;9.35;;;2.70;99.90;;;;;;4987635;28;20035;-92
2023/11/29 00:45:37;;;;;;;19.45;9.32;;;2.70;99.90;;;;;;5005799;28;20456;-91
2023/11/29 00:48:03;;;;;;;21.60;10.27;;;2.70;99.90;;;;;;4989560;28;20053;-92
2023/11/29 00:50:29;;;;;;;19.08;9.55;;;2.70;99.90;;;;;;4992893;28;20034;-91
2023/11/29 00:52:54;;;;;;;21.60;10.27;;;2.70;99.90;;;;;;4990857;28;20018;-93
2023/11/29 00:55:20;;;;;;;19.98;10.27;;;2.70;99.90;;;;;;4994827;28;20057;-92
2023/11/29 00:57:45;;;;;;;20.10;9.88;;;2.50;99.90;;;;;;4994922;28;20050;-92
2023/11/29 01:00:12;;;;;;;23.92;10.32;;;2.30;99.90;;;;;;4995256;28;20061;-91
2023/11/29 01:02:37;;;;;;;18.92;9.60;;;2.30;99.90;;;;;;4994086;28;20034;-93
2023/11/29 01:05:06;;;;;;;22.75;11.25;;;2.40;99.90;;;;;;4994277;28;20115;-92
2023/11/29 01:07:36;;;;;;;19.50;10.00;;;2.40;99.90;;;;;;4996703;28;20055;-92
2023/11/29 01:10:04;;;;;;;25.33;11.40;;;2.30;99.90;;;;;;5008891;28;20038;-95
2023/11/29 01:12:30;;;;;;;22.13;10.95;;;2.20;99.90;;;;;;4994930;28;20400;-93
2023/11/29 01:14:57;;;;;;;23.52;10.35;;;2.10;99.90;;;;;;4989604;28;20030;-92
2023/11/29 01:17:25;;;;;;;23.13;10.85;;;2.10;99.90;;;;;;4995858;28;20070;-93
2023/11/29 01:19:51;;;;;;;25.48;11.07;;;2.30;99.90;;;;;;5011631;28;20462;-92
2023/11/29 01:22:16;;;;;;;22.60;10.27;;;2.00;99.90;;;;;;4994737;28;20058;-92
2023/11/29 01:24:42;;;;;;;23.65;10.68;;;2.00;99.90;;;;;;4992453;28;20035;-93
2023/11/29 01:27:11;;;;;;;21.08;10.27;;;2.10;99.90;;;;;;4994462;28;20407;-92
2023/11/29 01:29:38;;;;;;;23.02;11.23;;;2.20;99.90;;;;;;4989273;28;20482;-92
2023/11/29 01:32:04;;;;;;;25.55;11.00;;;2.10;99.90;;;;;;4997146;28;20362;-92
2023/11/29 01:34:32;;;;;;;21.88;10.02;;;2.00;99.90;;;;;;4995747;28;20028;-93
2023/11/29 01:36:57;;;;;;;19.17;10.13;;;2.00;99.90;;;;;;4992716;28;20038;-92
2023/11/29 01:39:26;;;;;;;19.00;9.23;;;2.10;99.90;;;;;;5012083;28;20623;-93
2023/11/29 01:41:52;;;;;;;19.92;10.10;;;2.30;99.90;;;;;;4996921;28;20041;-91
2023/11/29 01:44:19;;;;;;;23.02;10.48;;;2.30;99.90;;;;;;4992617;28;20026;-92
2023/11/29 01:46:45;;;;;;;19.67;10.48;;;2.30;99.90;;;;;;5009516;28;20041;-90
2023/11/29 01:49:11;;;;;;;24.88;10.18;;;2.30;99.90;;;;;;5010052;28;20040;-91
2023/11/29 01:51:39;;;;;;;19.50;9.90;;;2.20;99.90;;;;;;4991037;28;20034;-92
2023/11/29 01:54:06;;;;;;;20.98;9.48;;;2.20;99.90;;;;;;4985110;28;20062;-91
2023/11/29 01:56:32;;;;;;;24.33;10.18;;;2.30;99.90;;;;;;4993277;28;20053;-92
2023/11/29 01:58:57;;;;;;;16.73;9.60;;;2.20;99.90;;;;;;4990765;28;20140;-91
2023/11/29 02:01:23;;;;;;;17.85;9.45;;;2.20;99.90;;;;;;4991664;28;20023;-92
2023/11/29 02:03:49;;;;;;;20.00;10.25;;;2.20;99.90;;;;;;4992183;28;20707;-91
2023/11/29 02:06:14;;;;;;;16.23;8.27;;;2.30;99.90;;;;;;5005739;28;20030;-93
2023/11/29 02:08:40;;;;;;;20.38;9.82;;;2.30;99.90;;;;;;5002330;28;20038;-89
2023/11/29 02:11:07;;;;;;;17.58;9.30;;;2.40;99.90;;;;;;4987067;28;20023;-91
2023/11/29 02:13:33;;;;;;;18.75;10.00;;;2.30;99.90;;;;;;5004036;28;20028;-92
2023/11/29 02:15:59;;;;;;;22.48;10.73;;;2.40;99.90;;;;;;4990441;28;20117;-92
2023/11/29 02:18:27;;;;;;;25.20;10.38;;;2.40;99.90;;;;;;4995366;28;20105;-91
2023/11/29 02:20:53;;;;;;;18.17;9.90;;;2.20;99.90;;;;;;4971365;28;20417;-91
2023/11/29 02:24:08;;;;;;;18.50;9.70;;;2.30;99.90;;;;;;4986820;28;20038;-89
2023/11/29 02:26:36;;;;;;;18.52;9.02;;;2.40;99.90;;;;;;4969934;28;20056;-92
2023/11/29 02:29:03;;;;;;;19.20;9.48;;;2.50;99.90;;;;;;4991894;28;20027;-92
2023/11/29 02:31:31;;;;;;;18.17;9.95;;;2.50;99.90;;;;;;4989625;28;20023;-91
2023/11/29 02:33:57;;;;;;;18.08;9.80;;;2.50;99.90;;;;;;5005484;28;20053;-93
2023/11/29 02:36:22;;;;;;;21.00;9.55;;;2.50;99.90;;;;;;4990486;28;20109;-89
2023/11/29 02:38:48;;;;;;;17.55;8.50;;;2.60;99.90;;;;;;4994590;28;20033;-90
2023/11/29 02:41:16;;;;;;;21.45;9.18;;;2.40;99.90;;;;;;4991106;28;20049;-92
2023/11/29 02:43:44;;;;;;;20.67;9.77;;;2.40;99.90;;;;;;4988399;28;20038;-91
2023/11/29 02:46:10;;;;;;;18.50;9.38;;;2.50;99.90;;;;;;4991839;28;20077;-91
2023/11/29 02:48:38;;;;;;;18.95;9.48;;;2.60;99.90;;;;;;4991523;28;20038;-91
2023/11/29 02:51:07;;;;;;;18.08;8.85;;;2.60;99.90;;;;;;4973464;28;20038;-90
2023/11/29 02:53:32;;;;;;;19.35;9.27;;;2.70;99.90;;;;;;4956603;28;20038;-91
2023/11/29 02:55:58;;;;;;;14.40;7.93;;;2.70;99.90;;;;;;4989934;28;20579;-91
2023/11/29 02:58:24;;;;;;;15.13;8.25;;;2.70;99.90;;;;;;4993236;28;20030;-92
2023/11/29 03:00:52;;;;;;;16.17;8.55;;;2.60;99.90;;;;;;4989333;28;20101;-90
2023/11/29 03:03:17;;;;;;;;;;;2.70;99.90;;;;;;5007840;28;20036;-91
2023/11/29 03:05:43;;;;;;;18.67;8.82;;;2.80;99.90;;;;;;4973053;28;20064;-91
2023/11/29 03:08:08;;;;;;;14.00;7.75;;;2.80;99.90;;;;;;4974655;28;20081;-90
2023/11/29 03:10:34;;;;;;;14.75;8.00;;;2.70;99.90;;;;;;4990984;28;20081;-91
2023/11/29 03:13:00;;;;;;;15.38;8.40;;;2.70;99.90;;;;;;4989497;28;20096;-91
2023/11/29 03:15:28;;;;;;;14.65;7.07;;;2.70;99.90;;;;;;4991726;28;20010;-90
2023/11/29 03:17:53;;;;;;;15.48;8.10;;;2.70;99.90;;;;;;4993953;28;20026;-92
2023/11/29 03:20:21;;;;;;;19.90;7.03;;;2.80;99.90;;;;;;4992021;28;20034;-91
2023/11/29 03:22:47;;;;;;;14.70;7.65;;;2.70;99.90;;;;;;4990352;28;20061;-90
2023/11/29 03:25:12;;;;;;;15.07;8.13;;;2.70;99.90;;;;;;4989761;28;20081;-92
2023/11/29 03:27:38;;;;;;;14.18;7.55;;;2.80;99.90;;;;;;4990307;28;20071;-92
2023/11/29 03:30:07;;;;;;;18.67;7.13;;;2.70;99.90;;;;;;4991450;28;20513;-91
2023/11/29 03:32:32;;;;;;;14.20;7.32;;;2.70;99.90;;;;;;4991578;28;20058;-91
2023/11/29 03:35:00;;;;;;;14.35;6.90;;;2.60;99.90;;;;;;4995289;28;20038;-90
2023/11/29 03:37:26;;;;;;;12.13;7.03;;;2.60;99.90;;;;;;5009697;28;20679;-90
2023/11/29 03:39:51;;;;;;;14.05;7.50;;;2.70;99.90;;;;;;4995273;28;20109;-91
2023/11/29 03:42:17;;;;;;;12.98;7.15;;;2.60;99.90;;;;;;4991961;28;20065;-90
2023/11/29 03:44:43;;;;;;;12.73;7.25;;;2.70;99.90;;;;;;4996206;28;20026;-91
2023/11/29 03:47:09;;;;;;;15.88;7.22;;;2.70;99.90;;;;;;4990202;28;20042;-92
2023/11/29 03:49:34;;;;;;;14.27;6.90;;;2.80;99.90;;;;;;4993421;28;20023;-91
2023/11/29 03:52:00;;;;;;;11.85;7.05;;;2.80;99.90;;;;;;4993913;28;20030;-91
2023/11/29 03:54:26;;;;;;;12.85;7.20;;;2.90;99.90;;;;;;5010125;28;20034;-92
2023/11/29 03:56:51;;;;;;;12.18;6.40;;;2.90;99.90;;;;;;5010111;28;20053;-91
2023/11/29 03:59:19;;;;;;;11.63;6.63;;;2.90;99.90;;;;;;4989206;28;20026;-91
2023/11/29 04:01:47;;;;;;;21.58;6.57;;;2.90;99.90;;;;;;4997656;28;20030;-91
2023/11/29 04:04:13;;;;;;;;;;;3.00;99.90;;;;;;5002649;28;20041;-90
2023/11/29 04:06:38;;;;;;;10.60;6.03;;;3.10;99.90;;;;;;4999103;28;19909;-89
2023/11/29 04:09:06;;;;;;;11.85;6.22;;;3.00;99.90;;;;;;5012495;28;20026;-90
2023/11/29 04:11:34;;;;;;;11.95;6.68;;;2.80;99.90;;;;;;4994442;28;20057;-92
2023/11/29 04:13:59;;;;;;;;;;;2.70;99.90;;;;;;4993434;28;20066;-91
2023/11/29 04:16:27;;;;;;;11.95;5.93;;;2.70;99.90;;;;;;4992852;28;19913;-91
2023/11/29 04:18:55;;;;;;;10.73;5.65;;;2.80;99.90;;;;;;4997899;28;20041;-91
2023/11/29 04:21:47;;;;;;;10.07;6.28;;;2.80;99.90;;;;;;5006081;28;20039;-92
2023/11/29 04:24:12;;;;;;;10.23;5.50;;;2.70;99.90;;;;;;4988666;28;20081;-92
2023/11/29 04:26:42;;;;;;;11.75;6.40;;;2.70;99.90;;;;;;4991823;28;20804;-89
2023/11/29 04:29:12;;;;;;;14.15;6.13;;;2.80;99.90;;;;;;5011397;28;20037;-91
2023/11/29 04:31:39;;;;;;;10.32;5.57;;;2.70;99.90;;;;;;4987832;28;20027;-91
2023/11/29 04:34:06;;;;;;;11.43;6.25;;;2.80;99.90;;;;;;4993812;28;20034;-91
2023/11/29 04:36:34;;;;;;;10.35;5.90;;;3.00;99.90;;;;;;4993186;28;20026;-92
2023/11/29 04:39:00;;;;;;;10.20;6.15;;;3.10;99.90;;;;;;4992649;28;20026;-91
2023/11/29 04:41:25;;;;;;;10.35;5.50;;;3.10;99.90;;;;;;4999569;28;20169;-92
2023/11/29 04:43:52;;;;;;;10.95;6.35;;;3.10;99.90;;;;;;4991959;28;20034;-91
2023/11/29 04:46:18;;;;;;;11.50;6.18;;;3.20;99.90;;;;;;4992298;28;20026;-88
2023/11/29 04:48:49;;;;;;;10.85;6.35;;;3.10;99.90;;;;;;4992677;28;20125;-91
2023/11/29 04:51:14;;;;;;;11.85;6.10;;;3.00;99.90;;;;;;5007946;28;20073;-91
2023/11/29 04:53:40;;;;;;;13.30;7.03;;;3.00;99.90;;;;;;4991908;28;20452;-90
2023/11/29 04:56:07;;;;;;;13.80;7.10;;;2.80;99.90;;;;;;5002511;28;20042;-90
2023/11/29 04:58:39;;;;;;;11.88;7.03;;;3.00;99.90;;;;;;4991634;28;20080;-91
2023/11/29 05:01:09;;;;;;;14.63;7.65;;;3.00;99.90;;;;;;4991695;28;20026;-89
2023/11/29 05:03:38;;;;;;;12.48;7.15;;;2.90;99.90;;;;;;4994032;28;20064;-91
2023/11/29 05:06:04;;;;;;;13.88;7.65;;;2.90;99.90;;;;;;4975896;28;20125;-90
2023/11/29 05:08:32;;;;;;;12.50;7.10;;;2.90;99.90;;;;;;4992578;28;20049;-91
2023/11/29 05:11:04;;;;;;;11.98;7.05;;;3.00;99.90;;;;;;4992877;28;20033;-92
2023/11/29 05:13:31;;;;;;;13.75;7.30;;;2.80;99.90;;;;;;4992665;28;20026;-92
2023/11/29 05:15:56;;;;;;;15.73;7.07;;;2.90;99.90;;;;;;4990477;28;20027;-91
2023/11/29 05:18:22;;;;;;;14.93;7.50;;;2.80;99.90;;;;;;4992878;28;20030;-92
2023/11/29 05:20:48;;;;;;;14.93;8.35;;;2.70;99.90;;;;;;4993060;28;20026;-92
2023/11/29 05:23:16;;;;;;;14.38;8.02;;;2.80;99.90;;;;;;4995523;28;20030;-92
2023/11/29 05:25:42;;;;;;;14.13;7.47;;;2.80;99.90;;;;;;4997224;28;20026;-92
2023/11/29 05:28:08;;;;;;;13.40;7.50;;;2.70;99.90;;;;;;4992772;28;20034;-91
2023/11/29 05:30:35;;;;;;;16.05;6.72;;;2.60;99.90;;;;;;4994018;28;20109;-92
2023/11/29 05:33:03;;;;;;;16.77;8.05;;;2.60;99.90;;;;;;5002713;28;20110;-92
2023/11/29 05:35:37;;;;;;;13.00;7.05;;;2.60;99.90;;;;;;4991850;28;20478;-91
2023/11/29 05:38:02;;;;;;;17.75;8.40;;;2.60;99.90;;;;;;4992466;28;20026;-91
2023/11/29 05:40:29;;;;;;;16.33;8.10;;;2.60;99.90;;;;;;4990818;28;20113;-89
2023/11/29 05:42:55;;;;;;;18.33;8.93;;;2.60;99.90;;;;;;4989390;28;20088;-90
2023/11/29 05:45:21;;;;;;;18.27;8.00;;;2.60;99.90;;;;;;4990685;28;20026;-90
2023/11/29 05:47:48;;;;;;;18.45;7.30;;;2.70;99.90;;;;;;4975662;28;20121;-91
2023/11/29 05:50:16;;;;;;;16.75;8.07;;;2.70;99.90;;;;;;5010880;28;20069;-91
2023/11/29 05:52:44;;;;;;;18.48;8.68;;;2.80;99.90;;;;;;5008470;28;20548;-90
2023/11/29 05:55:10;;;;;;;;;;;2.80;99.90;;;;;;4975679;28;20030;-92
2023/11/29 05:57:36;;;;;;;13.10;6.82;;;2.80;99.90;;;;;;4991787;28;19913;-91
2023/11/29 06:00:08;;;;;;;18.50;8.32;;;2.80;99.90;;;;;;4988994;28;20034;-91
2023/11/29 06:02:35;;;;;;;14.65;7.22;;;2.90;99.90;;;;;;4991351;28;20165;-91
2023/11/29 06:05:04;;;;;;;16.98;7.32;;;2.90;99.90;;;;;;5007512;28;20458;-92
2023/11/29 06:07:39;;;;;;;15.32;7.20;;;3.10;99.90;;;;;;4995383;28;20026;-89
2023/11/29 06:10:05;;;;;;;15.30;7.13;;;3.10;99.90;;;;;;4992507;28;20018;-91
2023/11/29 06:12:34;;;;;;;12.27;6.25;;;3.10;99.90;;;;;;5007981;28;20041;-92
2023/11/29 06:15:04;;;;;;;13.65;7.15;;;3.20;99.90;;;;;;5007114;28;20529;-90
2023/11/29 06:17:35;;;;;;;13.10;6.50;;;3.20;99.90;;;;;;5018434;28;20389;-92
2023/11/29 06:20:01;;;;;;;14.68;6.80;;;3.20;99.90;;;;;;4991859;28;20030;-92
2023/11/29 06:22:29;;;;;;;16.08;5.90;;;3.30;99.90;;;;;;4986847;28;20023;-92
2023/11/29 06:24:57;;;;;;;12.40;6.55;;;3.20;99.90;;;;;;4967355;28;20038;-92
2023/11/29 06:27:28;;;;;;;13.98;6.68;;;3.20;99.90;;;;;;4990670;28;20453;-92
2023/11/29 06:29:57;;;;;;;13.02;6.93;;;3.10;99.90;;;;;;4991197;28;20030;-93
2023/11/29 06:32:22;;;;;;;10.98;6.15;;;3.20;99.90;;;;;;4975933;28;20125;-92
2023/11/29 06:34:51;;;;;;;13.52;6.93;;;3.10;99.90;;;;;;4974997;28;20094;-92
2023/11/29 06:37:19;;;;;;;13.80;7.18;;;3.10;99.90;;;;;;4991043;28;20513;-91
2023/11/29 06:39:48;;;;;;;12.07;6.13;;;3.00;99.90;;;;;;4985953;28;20034;-90
2023/11/29 06:42:16;;;;;;;14.18;7.18;;;3.10;99.90;;;;;;4996785;28;20034;-93
2023/11/29 06:44:42;;;;;;;14.82;7.07;;;3.10;99.90;;;;;;4995660;28;20614;-92
2023/11/29 06:47:11;;;;;;;18.48;7.65;;;3.10;99.90;;;;;;4989224;28;20080;-92
2023/11/29 06:49:38;;;;;;;15.07;6.88;;;3.10;99.90;;;;;;4970575;28;20030;-90
2023/11/29 06:52:08;;;;;;;14.35;6.82;;;3.10;99.90;;;;;;4988775;28;20113;-91
2023/11/29 06:54:34;;;;;;;14.55;6.95;;;3.10;99.90;;;;;;4988490;28;20030;-90
2023/11/29 06:57:00;;;;;;;12.93;6.40;;;3.10;99.90;;;;;;4990105;28;20041;-91
2023/11/29 06:59:25;;;;;;;18.70;7.13;;;3.20;99.90;;;;;;4974447;28;20026;-92
2023/11/29 07:01:51;;;;;;;12.63;7.00;;;3.20;99.90;;;;;;4991497;28;20033;-92
2023/11/29 07:04:19;;;;;;;12.77;6.60;;;3.20;99.90;;;;;;5007740;28;20022;-92
2023/11/29 07:06:45;;;;;;;11.75;5.93;;;3.20;99.90;;;;;;5006927;28;20121;-91
2023/11/29 07:09:13;;;;;;;12.57;6.60;;;3.10;99.90;;;;;;4994145;28;20117;-92
2023/11/29 07:11:39;;;;;;;14.63;6.90;;;3.10;99.90;;;;;;4996200;28;20034;-90
2023/11/29 07:14:07;;;;;;;15.23;7.03;;;3.20;99.90;;;;;;4996311;28;20041;-92
2023/11/29 07:16:32;;;;;;;;;;;3.20;99.90;;;;;;4989651;28;20392;-92
2023/11/29 07:18:58;;;;;;;13.27;7.13;;;3.30;99.90;;;;;;5011427;28;20000;-92
2023/11/29 07:21:24;;;;;;;13.40;6.85;;;3.20;99.90;;;;;;4994612;28;20440;-92
2023/11/29 07:23:50;;;;;;;12.45;6.07;;;3.30;99.90;;;;;;5002469;28;20031;-92
2023/11/29 07:26:15;;;;;;;11.88;5.88;;;3.30;99.90;;;;;;4995197;28;20660;-92
2023/11/29 07:28:41;;;;;;;11.32;6.25;;;3.50;99.90;;;;;;4994958;28;20041;-92
2023/11/29 07:31:09;;;;;;;10.13;5.82;;;3.40;99.90;;;;;;4993701;28;20069;-92
2023/11/29 07:33:37;;;;;;;13.73;6.82;;;3.40;99.90;;;;;;4996172;28;20026;-91
2023/11/29 07:36:13;;;;;;;;;;;3.40;99.90;;;;;;4994579;28;20461;-92
2023/11/29 07:38:40;;;;;;;12.77;6.55;;;3.40;99.90;;;;;;4998089;28;19912;-92
2023/11/29 07:41:06;;;;;;;13.50;7.30;;;3.40;99.90;;;;;;4994888;28;20632;-89
2023/11/29 07:43:32;;;;;;;13.18;6.80;;;3.30;99.90;;;;;;4993866;28;20233;-92
2023/11/29 07:45:57;;;;;;;13.07;7.03;;;3.40;99.90;;;;;;5004791;28;20516;-92
2023/11/29 07:48:25;;;;;;;14.48;7.28;;;3.50;99.90;;;;;;5011536;28;20026;-92
2023/11/29 07:50:56;;;;;;;12.50;7.30;;;3.50;99.90;;;;;;5015007;28;20030;-93
2023/11/29 07:53:23;;;;;;;13.77;6.50;;;3.50;99.90;;;;;;5009495;28;20054;-92
2023/11/29 07:55:49;;;;;;;12.83;7.03;;;3.40;99.90;;;;;;4994629;28;20034;-92
2023/11/29 07:58:19;;;;;;;11.35;6.03;;;3.30;99.90;;;;;;5009968;28;20034;-92
2023/11/29 08:00:47;;;;;;;15.95;6.88;;;3.30;99.90;;;;;;4993876;28;20125;-92
2023/11/29 08:03:14;;;;;;;11.55;6.28;;;3.50;99.90;;;;;;4994214;28;20027;-91
2023/11/29 08:05:42;;;;;;;12.15;6.28;;;3.50;99.90;;;;;;4994882;28;20069;-88
2023/11/29 08:08:08;;;;;;;10.18;5.70;;;3.50;99.90;;;;;;4994295;28;20026;-93
2023/11/29 08:10:36;;;;;;;11.63;6.78;;;3.60;99.90;;;;;;5010771;28;20581;-91
2023/11/29 08:13:02;;;;;;;10.60;6.15;;;3.50;99.90;;;;;;4997746;28;20030;-92
2023/11/29 08:15:28;;;;;;;10.07;5.78;;;3.50;99.90;;;;;;5008289;28;20026;-91
2023/11/29 08:17:54;;;;;;;11.55;6.95;;;3.50;99.90;;;;;;4993125;28;20073;-91
2023/11/29 08:20:20;;;;;;;13.00;6.47;;;3.50;99.90;;;;;;4997886;28;20036;-89
2023/11/29 08:22:48;;;;;;;12.20;7.00;;;3.60;99.90;;;;;;5009046;28;20034;-91
2023/11/29 08:25:16;;;;;;;13.52;6.30;;;3.60;99.90;;;;;;4993767;28;20030;-92
2023/11/29 08:27:42;;;;;;;11.18;6.32;;;3.60;99.90;;;;;;5010513;28;20026;-92
2023/11/29 08:30:08;;;;;;;11.65;6.05;;;3.60;99.90;;;;;;4993960;28;20040;-92
2023/11/29 08:32:35;;;;;;;10.45;5.90;;;3.50;99.90;;;;;;4993387;28;20105;-92
2023/11/29 08:35:01;;;;;;;10.15;5.65;;;3.50;99.90;;;;;;4994075;28;20033;-92
2023/11/29 08:37:26;;;;;;;11.80;5.88;;;3.50;99.90;;;;;;5010297;28;20030;-92
2023/11/29 08:39:53;;;;;;;12.18;6.50;;;3.50;99.90;;;;;;5010565;28;20536;-92
2023/11/29 08:42:21;;;;;;;11.98;6.63;;;3.60;99.90;;;;;;5000816;28;20080;-92
2023/11/29 08:44:46;;;;;;;17.17;6.63;;;3.70;99.90;;;;;;5006001;28;20141;-91
2023/11/29 08:47:12;;;;;;;9.35;5.35;;;3.70;99.90;;;;;;5007335;28;20047;-92
2023/11/29 08:49:38;;;;;;;11.00;5.68;;;3.80;99.90;;;;;;4993534;28;20026;-92
2023/11/29 08:52:04;;;;;;;11.18;6.07;;;3.80;99.90;;;;;;4992569;28;20034;-90
2023/11/29 08:54:29;;;;;;;10.93;5.82;;;3.80;99.90;;;;;;4994380;28;20089;-92
2023/11/29 08:56:55;;;;;;;10.70;5.85;;;3.70;99.90;;;;;;4994193;28;20022;-89
2023/11/29 08:59:21;;;;;;;11.90;6.32;;;3.80;99.90;;;;;;4995068;28;20057;-91
2023/11/29 09:01:50;;;;;;;12.20;5.80;;;3.90;99.90;;;;;;4993556;28;20038;-90
2023/11/29 09:04:15;;;;;;;12.02;5.97;;;3.80;99.90;;;;;;4977454;28;20051;-91
2023/11/29 09:06:41;;;;;;;13.65;6.50;;;3.80;99.90;;;;;;4977467;28;20057;-90
2023/11/29 09:09:29;;;;;;;12.07;6.25;;;3.80;99.90;;;;;;4995316;28;20378;-90
2023/11/29 09:11:55;;;;;;;;;;;3.80;99.90;;;;;;5011263;28;20700;-90
2023/11/29 09:14:20;;;;;;;13.68;6.97;;;3.80;99.90;;;;;;5000062;28;19984;-91
2023/11/29 09:16:46;;;;;;;11.32;6.03;;;3.80;99.90;;;;;;4993896;28;20034;-89
2023/11/29 09:19:16;;;;;;;14.93;7.13;;;3.60;99.90;;;;;;4992981;28;20034;-90
2023/11/29 09:21:44;;;;;;;13.00;6.72;;;3.60;99.90;;;;;;4993710;28;20026;-90
2023/11/29 09:24:10;;;;;;;12.00;6.78;;;3.70;99.90;;;;;;4992826;28;20027;-90
2023/11/29 09:26:36;;;;;;;11.57;5.70;;;3.70;99.90;;;;;;4992691;28;20034;-90
2023/11/29 09:29:04;;;;;;;14.07;6.70;;;3.70;99.90;;;;;;4992649;28;20038;-92
2023/11/29 09:31:29;;;;;;;12.82;6.10;;;3.70;99.90;;;;;;5001146;28;20014;-89
2023/11/29 09:33:57;;;;;;;13.15;6.82;;;3.60;99.90;;;;;;5003413;28;20125;-90
2023/11/29 09:36:23;;;;;;;12.60;7.47;;;3.60;99.90;;;;;;4995593;28;20500;-90
2023/11/29 09:38:50;;;;;;;14.50;7.53;;;3.50;99.90;;;;;;5008596;28;20061;-91
2023/11/29 09:41:16;;;;;;;17.45;6.90;;;3.60;99.90;;;;;;4997126;28;20737;-91
2023/11/29 09:43:46;;;;;;;14.27;7.50;;;3.50;99.90;;;;;;5008906;28;20038;-90
2023/11/29 09:46:11;;;;;;;14.00;7.10;;;3.60;99.90;;;;;;4992188;28;20076;-91
2023/11/29 09:48:37;;;;;;;12.88;6.57;;;3.60;99.90;;;;;;5008799;28;20030;-90
2023/11/29 09:51:05;;;;;;;11.85;6.53;;;3.50;99.90;;;;;;4993020;28;20616;-92
2023/11/29 09:53:34;;;;;;;10.65;6.22;;;3.50;99.90;;;;;;4992484;28;20196;-90
2023/11/29 09:56:03;;;;;;;14.85;6.95;;;3.50;99.90;;;;;;4992089;28;20041;-91
2023/11/29 09:58:31;;;;;;;12.55;6.78;;;3.50;99.90;;;;;;4992333;28;20529;-91
2023/11/29 10:00:57;;;;;;;11.57;6.68;;;3.40;99.90;;;;;;4997187;28;20429;-92
2023/11/29 10:03:23;;;;;;;10.68;6.35;;;3.60;99.90;;;;;;4975236;28;20038;-89
2023/11/29 10:05:51;;;;;;;11.77;6.53;;;3.50;99.90;;;;;;4998496;28;20088;-90
2023/11/29 10:08:21;;;;;;;12.75;6.40;;;3.50;99.90;;;;;;4992032;28;20030;-90
2023/11/29 10:10:50;;;;;;;13.63;6.72;;;3.50;99.90;;;;;;4993503;28;20070;-90
2023/11/29 10:13:16;;;;;;;14.70;7.43;;;3.50;99.90;;;;;;5026645;28;20056;-92
2023/11/29 10:15:47;;;;;;;15.02;7.28;;;3.50;99.90;;;;;;4996786;28;20456;-92
2023/11/29 10:18:17;;;;;;;13.73;6.90;;;3.60;99.90;;;;;;4993928;28;20037;-91
2023/11/29 10:20:51;;;;;;;10.93;6.65;;;3.50;99.90;;;;;;5002363;28;20084;-92
2023/11/29 10:23:19;;;;;;;12.15;6.32;;;3.60;99.90;;;;;;4999774;28;20034;-93
2023/11/29 10:25:48;;;;;;;11.57;6.72;;;3.60;99.90;;;;;;5014156;28;20033;-93
2023/11/29 10:28:16;;;;;;;15.75;7.60;;;3.50;99.90;;;;;;5016262;28;20041;-91
2023/11/29 10:30:41;;;;;;;15.95;7.28;;;3.50;99.90;;;;;;4992944;28;20030;-92
2023/11/29 10:33:11;;;;;;;13.10;7.25;;;3.50;99.90;;;;;;4994661;28;20049;-92
2023/11/29 10:35:37;;;;;;;12.48;6.50;;;3.60;99.90;;;;;;4994551;28;20080;-92
2023/11/29 10:38:12;;;;;;;12.13;6.53;;;3.60;99.90;;;;;;5015192;28;20058;-93
2023/11/29 10:40:40;;;;;;;15.57;7.32;;;3.60;99.90;;;;;;4992570;28;20044;-90
2023/11/29 10:43:09;;;;;;;13.50;7.97;;;3.40;99.90;;;;;;4993678;28;20505;-90
2023/11/29 10:45:38;;;;;;;11.98;6.72;;;3.30;99.90;;;;;;4976862;28;20027;-90
2023/11/29 10:48:13;;;;;;;15.40;7.47;;;3.50;99.90;;;;;;5014483;28;20046;-91
2023/11/29 10:50:40;;;;;;;16.35;7.10;;;3.40;99.90;;;;;;4997142;28;20023;-93
2023/11/29 10:53:06;;;;;;;10.75;6.78;;;3.50;99.90;;;;;;5000603;28;20030;-93
2023/11/29 10:55:39;;;;;;;16.45;7.68;;;3.60;99.90;;;;;;5014922;28;20026;-91
2023/11/29 10:58:21;;;;;;;11.63;6.25;;;3.60;99.90;;;;;;4999399;28;20007;-93
2023/11/29 11:00:47;;;;;;;11.80;7.18;;;3.60;99.90;;;;;;5021504;28;20080;-94
2023/11/29 11:03:43;;;;;;;9.82;6.25;;;3.70;99.90;;;;;;5021784;28;20221;-92
2023/11/29 11:06:24;;;;;;;9.98;5.97;;;3.70;99.90;;;;;;4996477;28;20026;-93
2023/11/29 11:08:51;;;;;;;12.75;6.30;;;3.90;99.90;;;;;;5024647;28;20037;-94
2023/11/29 11:11:39;;;;;;;13.98;6.00;;;3.70;99.90;;;;;;5008162;28;20189;-92
2023/11/29 11:14:27;;;;;;;11.43;5.18;;;3.70;99.90;;;;;;5022784;28;20018;-91
2023/11/29 11:16:56;;;;;;;9.82;6.43;;;3.70;99.90;;;;;;5018901;28;20038;-93
2023/11/29 11:19:35;;;;;;;10.73;5.88;;;3.80;99.90;;;;;;5028156;28;20026;-94
2023/11/29 11:22:02;;;;;;;10.88;5.15;;;3.80;99.90;;;;;;5027001;28;20015;-94
2023/11/29 11:24:53;;;;;;;10.30;5.88;;;3.90;99.90;;;;;;5010793;28;20015;-94
2023/11/29 11:27:24;;;;;;;12.25;5.82;;;3.80;99.90;;;;;;5025372;28;20030;-94
2023/11/29 11:29:50;;;;;;;12.65;6.20;;;3.80;99.90;;;;;;5015234;28;20116;-94
2023/11/29 11:32:35;;;;;;;14.07;6.15;;;3.80;99.90;;;;;;5013497;28;20018;-93
2023/11/29 11:35:19;;;;;;;13.85;6.47;;;3.70;99.90;;;;;;5019840;28;20105;-93
2023/11/29 11:37:46;;;;;;;9.68;5.20;;;3.80;99.90;;;;;;5004568;28;20428;-92
2023/11/29 11:40:12;;;;;;;10.25;5.70;;;3.80;99.90;;;;;;5005710;28;20040;-93
2023/11/29 11:42:41;;;;;;;9.18;5.35;;;3.80;99.90;;;;;;5020738;28;20029;-93
2023/11/29 11:45:13;;;;;;;9.48;5.45;;;3.80;99.90;;;;;;5008856;28;20034;-94
2023/11/29 11:47:42;;;;;;;14.73;5.72;;;3.80;99.90;;;;;;5004685;28;20034;-93
2023/11/29 11:50:08;;;;;;;12.02;5.88;;;3.70;99.90;;;;;;4999180;28;20025;-92
2023/11/29 11:52:37;;;;;;;10.60;6.07;;;3.90;99.90;;;;;;5001033;28;20042;-93
2023/11/29 11:55:10;;;;;;;8.73;5.82;;;3.90;99.90;;;;;;5021926;28;20084;-93
2023/11/29 11:57:38;;;;;;;11.98;6.07;;;3.90;99.90;;;;;;5008886;28;20026;-93
2023/11/29 12:00:05;;;;;;;11.35;6.43;;;3.90;99.90;;;;;;5008139;28;20030;-92
2023/11/29 12:02:36;;;;;;;11.07;5.72;;;3.80;99.90;;;;;;5023209;28;20015;-92
2023/11/29 12:05:08;;;;;;;10.55;6.20;;;3.80;99.90;;;;;;5015572;28;20102;-93
2023/11/29 12:07:39;;;;;;;10.43;6.15;;;3.80;99.90;;;;;;5006528;28;20030;-94
2023/11/29 12:10:08;;;;;;;9.82;5.68;;;3.90;99.90;;;;;;5003551;28;20089;-93
2023/11/29 12:12:37;;;;;;;9.98;5.93;;;4.00;99.90;;;;;;5012575;28;20010;-93
2023/11/29 12:15:04;;;;;;;12.27;5.80;;;4.00;99.90;;;;;;5023762;28;20417;-91
2023/11/29 12:17:35;;;;;;;9.63;5.32;;;3.90;99.90;;;;;;5026732;28;20026;-94
2023/11/29 12:20:05;;;;;;;8.70;4.88;;;3.90;99.90;;;;;;5026677;28;20018;-91
2023/11/29 12:22:33;;;;;;;9.90;6.15;;;3.90;99.90;;;;;;4997062;28;20069;-92
2023/11/29 12:25:01;;;;;;;8.35;4.93;;;3.80;99.90;;;;;;5011101;28;20118;-93
2023/11/29 12:27:31;;;;;;;9.35;5.25;;;3.80;99.90;;;;;;5006434;28;20042;-94
2023/11/29 12:29:58;;;;;;;10.05;5.28;;;3.60;99.90;;;;;;5004982;28;20038;-93
2023/11/29 12:32:26;;;;;;;13.10;5.00;;;3.60;99.90;;;;;;5002196;28;20037;-95
2023/11/29 12:34:53;;;;;;;9.93;5.00;;;3.60;99.90;;;;;;5014542;28;20082;-95
2023/11/29 12:37:19;;;;;;;8.98;5.25;;;3.50;99.90;;;;;;5014574;28;20355;-96
2023/11/29 12:39:49;;;;;;;11.85;5.72;;;3.50;99.90;;;;;;5014178;28;20014;-95
2023/11/29 12:42:16;;;;;;;10.35;5.53;;;3.40;99.90;;;;;;5036663;28;20049;-96
2023/11/29 12:44:42;;;;;;;9.77;5.60;;;3.40;99.90;;;;;;5012650;28;20030;-94
2023/11/29 12:47:09;;;;;;;10.07;6.25;;;3.40;99.90;;;;;;4994983;28;20056;-96
2023/11/29 12:49:36;;;;;;;11.10;5.47;;;3.30;99.90;;;;;;5031099;28;20049;-93
2023/11/29 12:52:03;;;;;;;13.95;7.15;;;3.30;99.90;;;;;;5011947;28;20022;-94